Time;durP1;ratioP1;P1;durP2;ratioP2;P2;SDS_P1;SDS_P2;PMS_P1;PMS_P2;Temp;Humidity;BMP_temperature;BMP_pressure;BME280_temperature;BME280_humidity;BME280_pressure;Samples;Min_cycle;Max_cycle;Signal;HPM_P1;HPM_P2
2023/10/15 00:00:50;;;;;;;11.65;6.30;;;19.70;99.90;;;;;;5043328;28;20025;-56
2023/10/15 00:03:16;;;;;;;9.30;6.65;;;19.70;99.90;;;;;;5046668;28;20037;-59
2023/10/15 00:05:43;;;;;;;12.10;7.15;;;19.60;99.90;;;;;;5042509;28;20021;-59
2023/10/15 00:08:09;;;;;;;11.88;6.70;;;19.50;99.90;;;;;;5036950;28;20101;-58
2023/10/15 00:10:36;;;;;;;12.40;6.35;;;19.50;99.90;;;;;;5054532;28;20095;-57
2023/10/15 00:13:04;;;;;;;14.32;6.60;;;19.50;99.90;;;;;;5044855;28;20033;-55
2023/10/15 00:15:30;;;;;;;17.33;9.95;;;19.50;99.90;;;;;;5042143;28;20044;-57
2023/10/15 00:18:02;;;;;;;17.65;8.88;;;19.40;99.90;;;;;;5045674;28;20025;-58
2023/10/15 00:20:31;;;;;;;13.27;7.20;;;19.40;99.90;;;;;;5040062;28;20045;-57
2023/10/15 00:23:04;;;;;;;14.85;9.25;;;19.60;99.90;;;;;;5044346;28;20037;-56
2023/10/15 00:25:35;;;;;;;18.40;10.63;;;19.50;99.90;;;;;;5048031;28;20029;-57
2023/10/15 00:28:05;;;;;;;14.38;9.90;;;19.50;99.90;;;;;;5050615;28;20060;-57
2023/10/15 00:30:32;;;;;;;21.77;13.65;;;19.40;99.90;;;;;;5042190;28;20564;-58
2023/10/15 00:33:03;;;;;;;19.65;10.15;;;19.30;99.90;;;;;;5046712;28;20556;-60
2023/10/15 00:35:33;;;;;;;17.10;8.73;;;19.40;99.90;;;;;;5046167;28;20033;-58
2023/10/15 00:38:11;;;;;;;20.73;8.30;;;19.40;99.90;;;;;;5048842;28;20125;-58
2023/10/15 00:40:37;;;;;;;18.05;8.70;;;19.50;99.90;;;;;;5045323;28;20115;-58
2023/10/15 00:43:05;;;;;;;12.52;7.18;;;19.50;99.90;;;;;;5051162;28;20490;-59
2023/10/15 00:45:39;;;;;;;20.48;7.43;;;19.50;99.90;;;;;;5043701;28;20039;-56
2023/10/15 00:50:43;;;;;;;15.32;6.85;;;19.50;99.90;;;;;;5040617;28;20123;-59
2023/10/15 00:53:24;;;;;;;12.70;6.65;;;19.60;99.90;;;;;;5046435;28;20060;-58
2023/10/15 00:56:04;;;;;;;8.95;5.82;;;19.50;99.90;;;;;;5045288;28;20124;-56
2023/10/15 00:59:07;;;;;;;12.30;6.20;;;19.60;99.90;;;;;;5049322;28;20030;-60
2023/10/15 01:01:34;;;;;;;8.57;5.32;;;19.60;99.90;;;;;;5044655;28;20126;-58
2023/10/15 01:04:00;;;;;;;12.85;5.85;;;19.60;99.90;;;;;;5046001;28;20037;-56
2023/10/15 01:09:08;;;;;;;10.25;6.30;;;19.70;99.90;;;;;;5047468;28;20067;-56
2023/10/15 01:11:44;;;;;;;13.70;5.90;;;19.60;99.90;;;;;;5050405;28;20060;-58
2023/10/15 01:14:14;;;;;;;12.38;6.93;;;19.70;99.90;;;;;;5051327;28;20041;-57
2023/10/15 01:16:40;;;;;;;14.85;6.35;;;19.60;99.90;;;;;;5047465;28;20018;-59
2023/10/15 01:21:43;;;;;;;13.82;6.97;;;19.70;99.90;;;;;;5049805;28;20040;-58
2023/10/15 01:24:09;;;;;;;12.02;6.20;;;19.80;99.90;;;;;;5041757;28;20492;-59
2023/10/15 01:26:38;;;;;;;11.95;6.60;;;19.80;99.90;;;;;;5037008;28;20041;-59
2023/10/15 01:29:08;;;;;;;11.48;6.10;;;19.80;99.90;;;;;;5048295;28;20060;-56
2023/10/15 01:31:40;;;;;;;9.75;5.50;;;19.70;99.90;;;;;;5061877;28;20043;-57
2023/10/15 01:34:09;;;;;;;11.48;6.30;;;19.80;99.90;;;;;;5044663;28;20382;-56
2023/10/15 01:36:38;;;;;;;14.57;6.95;;;19.60;99.90;;;;;;5046867;28;20061;-60
2023/10/15 01:39:12;;;;;;;13.77;7.05;;;19.60;99.90;;;;;;5045535;28;20049;-58
2023/10/15 01:41:39;;;;;;;13.65;7.47;;;19.70;99.90;;;;;;5040714;28;20060;-55
2023/10/15 01:44:06;;;;;;;16.67;8.40;;;19.70;99.90;;;;;;5045278;28;20067;-56
2023/10/15 01:46:48;;;;;;;11.55;6.45;;;19.60;99.90;;;;;;5043893;28;20087;-57
2023/10/15 01:49:33;;;;;;;16.33;6.78;;;19.60;99.90;;;;;;5045597;28;20037;-56
2023/10/15 01:52:09;;;;;;;11.52;6.10;;;19.60;99.90;;;;;;5042756;28;20037;-58
2023/10/15 01:54:45;;;;;;;10.60;6.45;;;19.60;99.90;;;;;;5046493;28;20051;-56
2023/10/15 01:57:15;;;;;;;12.85;6.53;;;19.70;99.90;;;;;;5038773;28;20509;-57
2023/10/15 01:59:47;;;;;;;11.35;6.35;;;19.60;99.90;;;;;;5046164;28;20072;-59
2023/10/15 02:02:15;;;;;;;13.32;7.10;;;19.60;99.90;;;;;;5042242;28;20423;-56
2023/10/15 02:04:44;;;;;;;16.42;7.68;;;19.60;99.90;;;;;;5048268;28;20056;-58
2023/10/15 02:07:20;;;;;;;12.40;7.30;;;19.50;99.90;;;;;;5041303;28;20476;-59
2023/10/15 02:09:50;;;;;;;12.20;7.18;;;19.40;99.90;;;;;;5035509;28;20037;-57
2023/10/15 02:12:18;;;;;;;14.57;7.38;;;19.30;99.90;;;;;;5039226;28;20041;-59
2023/10/15 02:14:51;;;;;;;13.88;6.75;;;19.00;99.90;;;;;;5044873;28;20033;-59
2023/10/15 02:17:19;;;;;;;17.27;7.82;;;19.00;99.90;;;;;;5032960;28;20045;-57
2023/10/15 02:19:47;;;;;;;12.82;8.15;;;18.80;99.90;;;;;;5038330;28;20438;-58
2023/10/15 02:22:13;;;;;;;15.70;8.00;;;18.60;99.90;;;;;;5048426;28;20049;-56
2023/10/15 02:24:48;;;;;;;13.85;7.40;;;18.50;99.90;;;;;;5041771;28;20190;-57
2023/10/15 02:27:25;;;;;;;16.58;8.50;;;;;;;;;;5031843;28;20830;-55
2023/10/15 02:29:54;;;;;;;16.45;8.15;;;;;;;;;;5043907;28;20660;-57
2023/10/15 02:34:54;;;;;;;18.38;8.63;;;;;;;;;;5046766;28;20028;-57
2023/10/15 02:37:25;;;;;;;16.85;7.78;;;;;;;;;;5041445;28;20036;-55
2023/10/15 02:39:51;;;;;;;16.35;7.50;;;;;;;;;;5038760;28;20546;-56
2023/10/15 02:42:18;;;;;;;17.58;8.38;;;;;;;;;;5049460;28;20510;-58
2023/10/15 02:44:44;;;;;;;14.57;7.95;;;19.30;99.90;;;;;;5040623;28;20032;-59
2023/10/15 02:47:19;;;;;;;12.90;7.75;;;19.30;99.90;;;;;;5039607;28;20045;-59
2023/10/15 02:49:51;;;;;;;13.88;8.20;;;19.30;99.90;;;;;;5043563;28;20068;-58
2023/10/15 02:52:23;;;;;;;15.40;8.23;;;19.30;99.90;;;;;;5043650;28;20119;-58
2023/10/15 02:54:49;;;;;;;10.13;7.63;;;19.30;99.90;;;;;;5046232;28;20476;-57
2023/10/15 02:57:16;;;;;;;13.10;7.30;;;19.30;99.90;;;;;;5045473;28;20044;-56
2023/10/15 02:59:52;;;;;;;15.50;8.40;;;19.30;99.90;;;;;;5046535;28;20039;-59
2023/10/15 03:02:19;;;;;;;14.88;7.60;;;19.20;99.90;;;;;;5041968;28;20029;-56
2023/10/15 03:04:50;;;;;;;13.63;6.90;;;19.20;99.90;;;;;;5044750;28;20032;-55
2023/10/15 03:07:20;;;;;;;16.73;7.95;;;19.30;99.90;;;;;;5036929;28;20796;-59
2023/10/15 03:09:48;;;;;;;17.70;7.85;;;19.10;99.90;;;;;;5043540;28;20033;-56
2023/10/15 03:12:18;;;;;;;12.50;7.22;;;19.10;99.90;;;;;;5039724;28;20053;-60
2023/10/15 03:14:45;;;;;;;13.88;6.75;;;19.10;99.90;;;;;;5042929;28;20033;-59
2023/10/15 03:17:24;;;;;;;14.25;6.45;;;19.10;99.90;;;;;;5044985;28;20033;-56
2023/10/15 03:19:54;;;;;;;14.45;7.30;;;19.00;99.90;;;;;;5039909;28;20061;-57
2023/10/15 03:22:23;;;;;;;15.38;6.85;;;18.90;99.90;;;;;;5044970;28;20393;-59
2023/10/15 03:24:51;;;;;;;15.90;7.45;;;18.90;99.90;;;;;;5043773;28;20033;-56
2023/10/15 03:27:23;;;;;;;12.10;6.80;;;18.90;99.90;;;;;;5035389;28;20045;-60
2023/10/15 03:29:51;;;;;;;11.10;6.78;;;19.00;99.90;;;;;;5044419;28;20515;-59
2023/10/15 03:32:23;;;;;;;11.88;7.22;;;18.90;99.90;;;;;;5038871;28;20115;-57
2023/10/15 03:34:59;;;;;;;11.63;6.60;;;19.00;99.90;;;;;;5042632;28;20033;-60
2023/10/15 03:37:27;;;;;;;10.50;6.93;;;19.00;99.90;;;;;;5044465;28;20033;-54
2023/10/15 03:39:56;;;;;;;12.27;6.40;;;19.00;99.90;;;;;;5040721;28;20451;-58
2023/10/15 03:42:28;;;;;;;14.30;6.22;;;18.90;99.90;;;;;;5039865;28;20038;-57
2023/10/15 03:44:59;;;;;;;12.80;6.35;;;18.90;99.90;;;;;;5033917;28;20056;-55
2023/10/15 03:47:25;;;;;;;10.90;6.03;;;18.90;99.90;;;;;;5045822;28;20366;-53
2023/10/15 03:49:51;;;;;;;10.52;6.70;;;18.90;99.90;;;;;;5042955;28;20112;-56
2023/10/15 03:52:20;;;;;;;11.45;7.13;;;18.90;99.90;;;;;;5036117;28;20025;-54
2023/10/15 03:54:50;;;;;;;11.07;6.28;;;18.90;99.90;;;;;;5045004;28;20485;-54
2023/10/15 03:57:17;;;;;;;12.95;6.97;;;18.90;99.90;;;;;;5044979;28;20059;-58
2023/10/15 03:59:45;;;;;;;12.68;7.55;;;18.80;99.90;;;;;;5047226;28;20411;-58
2023/10/15 04:02:22;;;;;;;13.30;7.63;;;18.60;99.90;;;;;;5040032;28;20047;-56
2023/10/15 04:04:48;;;;;;;13.05;7.68;;;18.50;99.90;;;;;;5043668;28;20033;-56
2023/10/15 04:07:22;;;;;;;16.67;8.30;;;18.10;99.90;;;;;;5042198;28;20107;-57
2023/10/15 04:09:50;;;;;;;13.88;7.60;;;18.40;99.90;;;;;;5038439;28;20489;-59
2023/10/15 04:12:18;;;;;;;13.85;7.13;;;18.40;99.90;;;;;;5044729;28;20045;-54
2023/10/15 04:14:45;;;;;;;13.88;7.47;;;18.50;99.90;;;;;;5043269;28;20033;-56
2023/10/15 04:17:15;;;;;;;15.63;7.53;;;18.70;99.90;;;;;;5043141;28;20452;-57
2023/10/15 04:19:42;;;;;;;13.40;7.90;;;18.70;99.90;;;;;;5043219;28;20384;-56
2023/10/15 04:22:14;;;;;;;9.30;6.97;;;18.70;99.90;;;;;;5042197;28;20074;-59
2023/10/15 04:24:46;;;;;;;17.13;8.10;;;18.80;99.90;;;;;;5039153;28;20064;-54
2023/10/15 04:27:15;;;;;;;11.32;6.20;;;18.70;99.90;;;;;;5035014;28;20409;-54
2023/10/15 04:29:54;;;;;;;15.45;7.25;;;18.80;99.90;;;;;;5039258;28;20064;-56
2023/10/15 04:32:28;;;;;;;12.57;6.65;;;18.80;99.90;;;;;;5036458;28;20033;-59
2023/10/15 04:35:08;;;;;;;12.13;7.40;;;18.80;99.90;;;;;;5044552;28;20071;-59
2023/10/15 04:37:36;;;;;;;10.65;8.10;;;18.60;99.90;;;;;;5037875;28;20029;-59
2023/10/15 04:40:04;;;;;;;11.30;7.65;;;18.50;99.90;;;;;;5034752;28;20124;-56
2023/10/15 04:42:37;;;;;;;17.83;7.57;;;18.50;99.90;;;;;;5041808;28;20082;-54
2023/10/15 04:45:20;;;;;;;13.13;7.10;;;18.40;99.90;;;;;;5043112;28;20045;-59
2023/10/15 04:47:51;;;;;;;14.48;7.18;;;18.50;99.90;;;;;;5035316;28;20107;-58
2023/10/15 04:50:17;;;;;;;13.35;7.85;;;18.10;99.90;;;;;;5033275;28;20046;-56
2023/10/15 04:52:43;;;;;;;14.10;7.90;;;18.10;99.90;;;;;;5040233;28;20064;-55
2023/10/15 04:55:13;;;;;;;20.15;11.90;;;18.00;99.90;;;;;;5039850;28;20072;-59
2023/10/15 04:57:39;;;;;;;18.50;10.35;;;;;;;;;;5040906;28;20029;-56
2023/10/15 05:00:06;;;;;;;26.85;14.57;;;17.70;99.90;;;;;;5034710;28;20122;-55
2023/10/15 05:02:35;;;;;;;18.25;12.10;;;;;;;;;;5045238;28;20025;-56
2023/10/15 05:05:01;;;;;;;23.80;11.38;;;17.50;99.90;;;;;;5046448;28;20108;-56
2023/10/15 05:07:27;;;;;;;24.90;10.70;;;;;;;;;;5045963;28;20036;-57
2023/10/15 05:09:56;;;;;;;18.40;9.32;;;17.50;99.90;;;;;;5049131;28;20346;-59
2023/10/15 05:12:22;;;;;;;21.67;10.82;;;17.40;99.90;;;;;;5044209;28;20037;-58
2023/10/15 05:14:50;;;;;;;16.98;9.13;;;17.20;99.90;;;;;;5047585;28;20523;-56
2023/10/15 05:17:16;;;;;;;23.60;11.98;;;17.40;99.90;;;;;;5042720;28;20184;-56
2023/10/15 05:19:42;;;;;;;24.33;10.80;;;17.60;99.90;;;;;;5043859;28;20115;-56
2023/10/15 05:22:09;;;;;;;20.33;10.40;;;17.50;99.90;;;;;;5044741;28;20021;-56
2023/10/15 05:24:36;;;;;;;18.70;10.40;;;17.40;99.90;;;;;;5047971;28;20022;-55
2023/10/15 05:27:01;;;;;;;20.88;10.85;;;17.50;99.90;;;;;;5042267;28;20033;-57
2023/10/15 05:29:27;;;;;;;17.40;10.50;;;17.80;99.90;;;;;;5037186;28;20038;-56
2023/10/15 05:31:54;;;;;;;18.85;10.75;;;17.90;99.90;;;;;;5041456;28;20056;-57
2023/10/15 05:34:20;;;;;;;19.63;10.90;;;18.00;99.90;;;;;;5049826;28;20068;-57
2023/10/15 05:36:46;;;;;;;24.70;11.75;;;18.10;99.90;;;;;;5046404;28;20036;-58
2023/10/15 05:39:15;;;;;;;23.33;12.13;;;18.40;99.90;;;;;;5060666;28;20405;-57
2023/10/15 05:41:42;;;;;;;19.85;12.23;;;18.90;99.90;;;;;;5041271;28;20029;-56
2023/10/15 05:44:08;;;;;;;21.60;12.00;;;19.40;99.90;;;;;;5059394;28;20083;-58
2023/10/15 05:46:34;;;;;;;22.20;12.13;;;;;;;;;;5045411;28;20439;-59
2023/10/15 05:49:00;;;;;;;23.30;12.00;;;18.20;99.90;;;;;;5044376;28;20036;-57
2023/10/15 05:51:27;;;;;;;23.70;12.98;;;21.50;99.90;;;;;;5042995;28;20021;-56
2023/10/15 05:53:54;;;;;;;19.00;10.30;;;21.70;99.90;;;;;;5041363;28;20055;-57
2023/10/15 05:56:21;;;;;;;20.88;11.60;;;21.90;99.90;;;;;;5044690;28;20091;-58
2023/10/15 05:58:47;;;;;;;19.90;10.32;;;;;;;;;;5044580;28;20100;-56
2023/10/15 06:01:15;;;;;;;21.60;10.18;;;;;;;;;;5045422;28;20039;-57
2023/10/15 06:03:42;;;;;;;19.88;9.15;;;;;;;;;;5038853;28;20037;-55
2023/10/15 06:06:08;;;;;;;16.75;10.93;;;;;;;;;;5045703;28;20025;-56
2023/10/15 06:08:34;;;;;;;16.67;10.20;;;21.70;99.90;;;;;;5048776;28;20045;-56
2023/10/15 06:10:59;;;;;;;24.88;12.60;;;21.00;99.90;;;;;;5048210;28;20657;-58
2023/10/15 06:13:25;;;;;;;21.48;11.13;;;20.90;99.90;;;;;;5044167;28;20042;-59
2023/10/15 06:15:51;;;;;;;23.48;13.07;;;20.50;99.90;;;;;;5039393;28;20025;-56
2023/10/15 06:18:17;;;;;;;25.77;14.27;;;20.30;99.90;;;;;;5043854;28;20487;-56
2023/10/15 06:20:47;;;;;;;23.45;12.98;;;20.20;99.90;;;;;;5039528;28;20086;-57
2023/10/15 06:23:13;;;;;;;27.25;13.85;;;20.10;99.90;;;;;;5045809;28;20119;-58
2023/10/15 06:25:39;;;;;;;27.13;13.20;;;20.00;99.90;;;;;;5043539;28;20051;-59
2023/10/15 06:28:06;;;;;;;29.80;14.02;;;20.00;99.90;;;;;;5040728;28;20389;-57
2023/10/15 06:30:32;;;;;;;24.75;13.43;;;19.80;99.90;;;;;;5039911;28;20033;-59
2023/10/15 06:32:58;;;;;;;26.48;15.05;;;19.60;99.90;;;;;;5045427;28;20032;-58
2023/10/15 06:35:25;;;;;;;28.33;14.40;;;19.50;99.90;;;;;;5044267;28;20029;-59
2023/10/15 06:37:57;;;;;;;30.10;15.95;;;19.40;99.90;;;;;;5042567;28;20033;-59
2023/10/15 06:40:24;;;;;;;25.92;14.25;;;19.20;99.90;;;;;;5045158;28;20039;-56
2023/10/15 06:42:51;;;;;;;23.77;14.38;;;;;;;;;;5041744;28;20413;-58
2023/10/15 06:45:20;;;;;;;23.63;14.63;;;18.80;99.90;;;;;;5041755;28;20469;-55
2023/10/15 06:47:51;;;;;;;30.42;16.35;;;18.70;99.90;;;;;;5043357;28;20033;-55
2023/10/15 06:50:19;;;;;;;39.70;19.38;;;18.50;99.90;;;;;;5038275;28;20033;-57
2023/10/15 06:52:45;;;;;;;50.63;27.00;;;18.00;99.90;;;;;;5042941;28;20079;-55
2023/10/15 06:55:13;;;;;;;48.38;26.63;;;18.00;99.90;;;;;;5058028;28;20037;-56
2023/10/15 06:57:40;;;;;;;52.53;26.10;;;17.80;99.90;;;;;;5034788;28;20034;-58
2023/10/15 07:00:31;;;;;;;56.00;28.90;;;17.70;99.90;;;;;;5044226;28;20021;-58
2023/10/15 07:02:57;;;;;;;51.70;26.83;;;17.60;99.90;;;;;;5041809;28;20041;-56
2023/10/15 07:05:25;;;;;;;56.00;28.88;;;17.50;99.90;;;;;;5035657;28;20469;-57
2023/10/15 07:07:51;;;;;;;44.90;24.98;;;;;;;;;;5046089;28;20037;-58
2023/10/15 07:10:17;;;;;;;41.05;24.98;;;;;;;;;;5041601;28;20029;-58
2023/10/15 07:12:54;;;;;;;36.38;19.58;;;17.20;99.90;;;;;;5037141;28;20025;-59
2023/10/15 07:15:20;;;;;;;26.05;15.07;;;17.20;99.90;;;;;;5040354;28;20037;-56
2023/10/15 07:17:49;;;;;;;21.23;13.88;;;17.10;99.90;;;;;;5035394;28;20029;-58
2023/10/15 07:20:17;;;;;;;14.95;10.35;;;17.10;99.90;;;;;;5043453;28;20048;-57
2023/10/15 07:22:46;;;;;;;13.93;8.63;;;17.10;99.90;;;;;;5038525;28;20041;-56
2023/10/15 07:25:13;;;;;;;14.13;7.00;;;17.10;99.90;;;;;;5043045;28;20042;-58
2023/10/15 07:27:45;;;;;;;11.55;6.47;;;17.10;99.90;;;;;;5043586;28;20447;-57
2023/10/15 07:30:12;;;;;;;9.57;6.38;;;17.00;99.90;;;;;;5044329;28;20108;-59
2023/10/15 07:32:42;;;;;;;11.20;7.90;;;17.00;99.90;;;;;;5042366;28;20037;-56
2023/10/15 07:35:12;;;;;;;12.32;6.53;;;17.10;99.90;;;;;;5040893;28;20025;-58
2023/10/15 07:37:43;;;;;;;10.77;6.82;;;17.00;99.90;;;;;;5044990;28;20362;-53
2023/10/15 07:40:18;;;;;;;11.80;6.53;;;16.90;99.90;;;;;;5046137;28;20025;-56
2023/10/15 07:42:45;;;;;;;10.85;6.55;;;17.00;99.90;;;;;;5045960;28;20028;-54
2023/10/15 07:45:11;;;;;;;10.18;6.15;;;17.10;99.90;;;;;;5044152;28;20032;-56
2023/10/15 07:47:37;;;;;;;19.02;6.60;;;17.10;99.90;;;;;;5042185;28;20044;-58
2023/10/15 07:50:16;;;;;;;11.82;6.63;;;17.10;99.90;;;;;;5056561;28;20037;-56
2023/10/15 07:52:43;;;;;;;10.68;5.43;;;17.10;99.90;;;;;;5039149;28;20063;-55
2023/10/15 07:55:12;;;;;;;8.55;5.38;;;17.10;99.90;;;;;;5037721;28;20061;-55
2023/10/15 07:57:38;;;;;;;7.28;5.30;;;17.00;99.90;;;;;;5040071;28;20469;-55
2023/10/15 08:00:08;;;;;;;6.63;4.80;;;17.10;99.90;;;;;;5043189;28;20040;-55
2023/10/15 08:02:35;;;;;;;9.48;4.97;;;17.10;99.90;;;;;;5034910;28;20604;-57
2023/10/15 08:05:01;;;;;;;6.93;5.13;;;17.10;99.90;;;;;;5043369;28;20021;-55
2023/10/15 08:07:28;;;;;;;8.70;5.15;;;17.20;99.90;;;;;;5041514;28;20185;-56
2023/10/15 08:09:54;;;;;;;9.13;5.15;;;17.10;99.90;;;;;;5036437;28;20045;-55
2023/10/15 08:12:20;;;;;;;8.38;5.28;;;17.20;99.90;;;;;;5040452;28;20058;-55
2023/10/15 08:14:47;;;;;;;8.43;4.68;;;17.30;99.90;;;;;;5039252;28;20276;-55
2023/10/15 08:17:15;;;;;;;10.27;5.18;;;17.20;99.90;;;;;;5041350;28;20029;-55
2023/10/15 08:19:41;;;;;;;9.02;4.80;;;17.10;99.90;;;;;;5040244;28;20034;-55
2023/10/15 08:22:08;;;;;;;7.38;5.30;;;17.20;99.90;;;;;;5025613;28;20114;-55
2023/10/15 08:24:38;;;;;;;8.70;5.20;;;17.30;99.90;;;;;;5038722;28;20040;-55
2023/10/15 08:27:05;;;;;;;9.82;4.82;;;17.10;99.90;;;;;;5039701;28;20128;-55
2023/10/15 08:29:30;;;;;;;9.85;6.20;;;17.10;99.90;;;;;;5036220;28;20509;-56
2023/10/15 08:31:56;;;;;;;9.02;5.97;;;17.00;99.90;;;;;;5035470;28;20091;-55
2023/10/15 08:34:23;;;;;;;5.60;3.92;;;17.00;99.90;;;;;;5035215;28;20087;-56
2023/10/15 08:36:49;;;;;;;7.85;4.45;;;16.90;99.90;;;;;;5037862;28;20034;-57
2023/10/15 08:39:15;;;;;;;7.60;4.40;;;17.00;99.90;;;;;;5035806;28;20029;-58
2023/10/15 08:41:44;;;;;;;5.93;3.47;;;17.00;99.90;;;;;;5037474;28;20060;-55
2023/10/15 08:44:10;;;;;;;4.90;3.35;;;16.90;99.90;;;;;;5044479;28;20041;-55
2023/10/15 08:46:39;;;;;;;7.63;3.83;;;16.70;99.90;;;;;;5042472;28;20033;-54
2023/10/15 08:49:08;;;;;;;8.55;3.80;;;16.70;99.90;;;;;;5061250;28;20064;-58
2023/10/15 08:51:35;;;;;;;4.88;3.58;;;16.60;99.90;;;;;;5045672;28;20397;-56
2023/10/15 08:54:04;;;;;;;8.60;6.63;;;16.70;99.90;;;;;;5054441;28;20111;-60
2023/10/15 08:56:33;;;;;;;7.25;4.00;;;16.70;99.90;;;;;;5046085;28;20040;-55
2023/10/15 08:59:00;;;;;;;5.82;3.70;;;16.60;99.90;;;;;;5058962;28;20041;-58
2023/10/15 09:01:26;;;;;;;7.05;4.10;;;16.70;99.90;;;;;;5054511;28;20094;-58
2023/10/15 09:03:52;;;;;;;6.20;3.95;;;16.60;99.90;;;;;;5043616;28;20025;-56
2023/10/15 09:06:22;;;;;;;9.73;4.57;;;16.70;99.90;;;;;;5040656;28;20026;-55
2023/10/15 09:08:50;;;;;;;6.47;3.72;;;16.80;99.90;;;;;;5043222;28;20037;-55
2023/10/15 09:11:16;;;;;;;7.30;4.22;;;16.80;99.90;;;;;;5041450;28;20489;-59
2023/10/15 09:13:42;;;;;;;8.00;3.80;;;16.70;99.90;;;;;;5038898;28;20056;-57
2023/10/15 09:16:09;;;;;;;10.48;3.90;;;16.70;99.90;;;;;;5042861;28;20021;-56
2023/10/15 09:18:35;;;;;;;8.43;3.67;;;16.80;99.90;;;;;;5047569;28;20438;-61
2023/10/15 09:21:05;;;;;;;9.30;4.47;;;16.90;99.90;;;;;;5044616;28;20044;-58
2023/10/15 09:23:36;;;;;;;10.95;4.97;;;16.80;99.90;;;;;;5044919;28;20029;-56
2023/10/15 09:26:06;;;;;;;13.18;5.20;;;16.90;99.90;;;;;;5048248;28;20033;-55
2023/10/15 09:28:33;;;;;;;10.82;5.57;;;16.80;99.90;;;;;;5043154;28;20045;-58
2023/10/15 09:31:06;;;;;;;8.10;4.47;;;16.80;99.90;;;;;;5042219;28;20037;-56
2023/10/15 09:33:33;;;;;;;6.05;3.85;;;16.80;99.90;;;;;;5037564;28;20033;-57
2023/10/15 09:36:02;;;;;;;6.40;3.88;;;16.80;99.90;;;;;;5044945;28;20036;-55
2023/10/15 09:38:31;;;;;;;8.60;4.60;;;16.80;99.90;;;;;;5047871;28;20120;-54
2023/10/15 09:41:01;;;;;;;9.32;4.55;;;16.80;99.90;;;;;;5037439;28;20042;-55
2023/10/15 09:43:28;;;;;;;9.75;6.40;;;16.80;99.90;;;;;;5040128;28;20036;-53
2023/10/15 09:45:54;;;;;;;5.40;3.70;;;16.70;99.90;;;;;;5037859;28;20025;-58
2023/10/15 09:48:24;;;;;;;4.80;3.55;;;16.60;99.90;;;;;;5046202;28;20029;-57
2023/10/15 09:50:57;;;;;;;6.82;4.60;;;16.60;99.90;;;;;;5076359;28;20037;-59
2023/10/15 09:53:29;;;;;;;7.72;3.38;;;16.70;99.90;;;;;;5042464;28;20393;-58
2023/10/15 09:55:57;;;;;;;4.22;2.95;;;17.00;99.90;;;;;;5042435;28;20061;-58
2023/10/15 09:58:24;;;;;;;6.45;3.05;;;16.80;99.90;;;;;;5047363;28;20098;-57
2023/10/15 10:01:09;;;;;;;5.85;2.97;;;16.80;99.90;;;;;;5039166;28;20125;-55
2023/10/15 10:03:49;;;;;;;4.20;3.05;;;16.70;99.90;;;;;;5052024;28;20017;-54
2023/10/15 10:06:47;;;;;;;5.10;3.50;;;16.80;99.90;;;;;;5045328;28;20501;-54
2023/10/15 10:09:51;;;;;;;5.88;3.50;;;16.80;99.90;;;;;;5039496;28;20116;-57
2023/10/15 10:12:54;;;;;;;6.15;2.92;;;16.90;99.90;;;;;;5040220;28;20037;-59
2023/10/15 10:15:22;;;;;;;;;;;16.80;99.90;;;;;;5042281;28;20049;-57
2023/10/15 10:17:50;;;;;;;6.03;3.55;;;16.60;99.90;;;;;;5045170;28;19935;-56
2023/10/15 10:20:19;;;;;;;4.45;2.63;;;16.60;99.90;;;;;;5046671;28;20040;-59
2023/10/15 10:22:56;;;;;;;5.75;2.95;;;16.30;99.90;;;;;;5046625;28;20039;-57
2023/10/15 10:25:36;;;;;;;6.80;3.13;;;16.40;99.90;;;;;;5044714;28;20538;-58
2023/10/15 10:28:11;;;;;;;6.97;3.22;;;16.40;99.90;;;;;;5040455;28;20046;-57
2023/10/15 10:30:39;;;;;;;6.40;2.13;;;16.50;99.90;;;;;;5039849;28;20458;-58
2023/10/15 10:33:05;;;;;;;7.90;2.55;;;16.50;99.90;;;;;;5038536;28;20409;-59
2023/10/15 10:35:45;;;;;;;6.97;3.30;;;16.40;99.90;;;;;;5037001;28;20176;-58
2023/10/15 10:38:18;;;;;;;4.50;2.90;;;16.40;99.90;;;;;;5038884;28;20115;-60
2023/10/15 10:40:47;;;;;;;7.63;3.45;;;16.50;99.90;;;;;;5030297;28;20064;-57
2023/10/15 10:43:27;;;;;;;5.80;5.03;;;16.50;99.90;;;;;;5030469;28;20462;-57
2023/10/15 10:45:57;;;;;;;3.55;2.63;;;16.40;99.90;;;;;;5044875;28;20043;-57
2023/10/15 10:48:29;;;;;;;4.88;3.00;;;16.40;99.90;;;;;;5041922;28;20064;-60
2023/10/15 10:51:15;;;;;;;9.93;3.97;;;16.30;99.90;;;;;;5038529;28;20052;-55
2023/10/15 10:53:56;;;;;;;7.28;3.58;;;16.30;99.90;;;;;;5042220;28;20083;-58
2023/10/15 10:56:44;;;;;;;4.38;2.03;;;16.30;99.90;;;;;;5038567;28;20037;-55
2023/10/15 10:59:12;;;;;;;4.68;2.92;;;16.10;99.90;;;;;;5037184;28;20035;-56
2023/10/15 11:01:39;;;;;;;8.60;2.63;;;;;;;;;;5044439;28;20095;-57
2023/10/15 11:04:15;;;;;;;36.00;19.20;;;16.00;99.90;;;;;;5044157;28;20030;-57
2023/10/15 11:06:45;;;;;;;1.65;1.08;;;15.90;99.90;;;;;;5037442;28;20528;-55
2023/10/15 11:09:19;;;;;;;4.95;2.20;;;;;;;;;;5036642;28;20437;-56
2023/10/15 11:11:55;;;;;;;2.10;1.10;;;;;;;;;;5011357;28;20034;-61
2023/10/15 11:14:23;;;;;;;3.17;1.83;;;;;;;;;;5017366;28;20042;-59
2023/10/15 11:16:54;;;;;;;4.88;1.40;;;15.60;99.90;;;;;;5021067;28;20128;-59
2023/10/15 11:19:23;;;;;;;2.75;1.20;;;15.70;99.90;;;;;;5013192;28;20069;-56
2023/10/15 11:21:50;;;;;;;3.75;1.42;;;15.70;99.90;;;;;;5021003;28;20091;-55
2023/10/15 11:24:16;;;;;;;3.80;1.52;;;15.70;99.90;;;;;;5018343;28;20052;-56
2023/10/15 11:26:44;;;;;;;7.05;2.90;;;15.60;99.90;;;;;;4972680;28;20617;-58
2023/10/15 11:29:11;;;;;;;4.63;2.75;;;15.70;99.90;;;;;;5016106;28;20127;-56
2023/10/15 11:31:38;;;;;;;8.85;3.47;;;15.70;99.90;;;;;;5020136;28;20037;-63
2023/10/15 11:34:06;;;;;;;13.27;5.80;;;15.90;99.90;;;;;;4974171;28;20113;-58
2023/10/15 11:36:35;;;;;;;10.23;4.10;;;15.90;99.90;;;;;;5022869;28;20049;-59
2023/10/15 11:39:08;;;;;;;12.10;4.78;;;15.90;99.90;;;;;;5044428;28;20579;-59
2023/10/15 11:41:38;;;;;;;12.18;3.42;;;15.70;99.90;;;;;;5026001;28;20049;-58
2023/10/15 11:44:06;;;;;;;7.15;2.15;;;15.70;99.90;;;;;;5035931;28;20022;-59
2023/10/15 11:46:35;;;;;;;4.93;1.45;;;15.40;99.90;;;;;;5037119;28;20045;-56
2023/10/15 11:49:01;;;;;;;5.05;1.40;;;15.20;99.90;;;;;;5043767;28;20033;-61
2023/10/15 11:51:31;;;;;;;5.97;2.03;;;;;;;;;;5040234;28;20029;-60
2023/10/15 11:54:01;;;;;;;1.52;1.00;;;15.00;99.90;;;;;;5036939;28;20042;-61
2023/10/15 11:56:27;;;;;;;3.80;1.80;;;14.90;99.90;;;;;;5040817;28;20451;-58
2023/10/15 11:58:54;;;;;;;3.95;1.52;;;15.00;99.90;;;;;;5043283;28;20523;-60
2023/10/15 12:01:21;;;;;;;3.50;1.23;;;15.00;99.90;;;;;;5034167;28;20033;-62
2023/10/15 12:03:48;;;;;;;6.28;1.63;;;14.90;99.90;;;;;;5043941;28;20477;-59
2023/10/15 12:06:16;;;;;;;4.65;1.63;;;14.80;99.90;;;;;;5037685;28;20393;-59
2023/10/15 12:08:43;;;;;;;3.20;1.40;;;14.80;99.90;;;;;;5046287;28;20047;-60
2023/10/15 12:11:08;;;;;;;7.15;1.67;;;14.90;99.90;;;;;;5043716;28;20035;-60
2023/10/15 12:13:34;;;;;;;4.50;1.52;;;14.90;99.90;;;;;;5041053;28;20124;-58
2023/10/15 12:16:00;;;;;;;4.22;1.50;;;14.80;99.90;;;;;;5038561;28;20033;-63
2023/10/15 12:18:26;;;;;;;2.22;1.02;;;14.90;99.90;;;;;;5039476;28;20028;-58
2023/10/15 12:20:52;;;;;;;3.47;1.48;;;14.80;99.90;;;;;;5046462;28;20508;-56
2023/10/15 12:23:19;;;;;;;3.88;1.75;;;14.80;99.90;;;;;;5044799;28;20082;-59
2023/10/15 12:25:45;;;;;;;3.95;1.88;;;14.70;99.90;;;;;;5045173;28;20085;-59
2023/10/15 12:28:11;;;;;;;3.50;1.73;;;14.60;99.90;;;;;;5044987;28;20044;-62
2023/10/15 12:30:37;;;;;;;3.83;1.92;;;14.60;99.90;;;;;;5039914;28;20029;-62
2023/10/15 12:33:03;;;;;;;5.45;2.15;;;14.60;99.90;;;;;;5044085;28;20484;-58
2023/10/15 12:35:29;;;;;;;5.68;2.17;;;14.60;99.90;;;;;;5049235;28;20029;-61
2023/10/15 12:38:05;;;;;;;4.72;1.80;;;;;;;;;;5028633;28;20044;-59
2023/10/15 12:40:32;;;;;;;5.85;2.25;;;;;;;;;;5040662;28;20078;-60
2023/10/15 12:43:08;;;;;;;5.32;2.58;;;;;;;;;;5043108;28;20044;-63
2023/10/15 12:45:34;;;;;;;7.80;2.88;;;;;;;;;;5046642;28;20029;-60
2023/10/15 12:48:01;;;;;;;5.60;2.33;;;;;;;;;;5040580;28;20044;-58
2023/10/15 12:50:28;;;;;;;5.78;1.90;;;;;;;;;;5040726;28;20051;-60
2023/10/15 12:52:57;;;;;;;4.30;1.70;;;;;;;;;;5042548;28;20056;-59
2023/10/15 12:55:24;;;;;;;2.72;1.50;;;14.30;99.90;;;;;;5043115;28;20025;-60
2023/10/15 12:57:52;;;;;;;3.33;1.35;;;14.10;99.90;;;;;;5039543;28;20040;-58
2023/10/15 13:00:19;;;;;;;3.80;1.58;;;14.00;99.90;;;;;;5045712;28;20040;-60
2023/10/15 13:02:48;;;;;;;3.67;1.52;;;14.00;99.90;;;;;;5035303;28;20056;-59
2023/10/15 13:05:17;;;;;;;3.63;1.88;;;14.00;99.90;;;;;;5046195;28;20087;-59
2023/10/15 13:07:43;;;;;;;3.67;1.88;;;14.00;99.90;;;;;;5046544;28;20048;-56
2023/10/15 13:10:09;;;;;;;6.25;2.30;;;14.00;99.90;;;;;;5042427;28;20460;-63